sensor_id;sensor_type;location;lat;lon;timestamp;P1;durP1;ratioP1;P2;durP2;ratioP2
10588;SDS011;5342;55.676;13.346;2022-08-19T00:01:43;22.30;;;20.40;;
10588;SDS011;5342;55.676;13.346;2022-08-19T00:04:12;21.53;;;19.53;;
10588;SDS011;5342;55.676;13.346;2022-08-19T00:06:39;21.57;;;19.57;;
10588;SDS011;5342;55.676;13.346;2022-08-19T00:09:08;22.77;;;20.37;;
10588;SDS011;5342;55.676;13.346;2022-08-19T00:11:35;22.63;;;20.67;;
10588;SDS011;5342;55.676;13.346;2022-08-19T00:14:02;24.10;;;21.77;;
10588;SDS011;5342;55.676;13.346;2022-08-19T00:16:29;25.43;;;23.23;;
10588;SDS011;5342;55.676;13.346;2022-08-19T00:18:56;25.87;;;23.37;;
10588;SDS011;5342;55.676;13.346;2022-08-19T00:21:23;25.63;;;23.13;;
10588;SDS011;5342;55.676;13.346;2022-08-19T00:23:52;25.90;;;23.53;;
10588;SDS011;5342;55.676;13.346;2022-08-19T00:26:19;29.63;;;26.47;;
10588;SDS011;5342;55.676;13.346;2022-08-19T00:28:46;28.87;;;26.03;;
10588;SDS011;5342;55.676;13.346;2022-08-19T00:31:12;29.73;;;26.70;;
10588;SDS011;5342;55.676;13.346;2022-08-19T00:33:39;30.87;;;28.07;;
10588;SDS011;5342;55.676;13.346;2022-08-19T00:36:06;32.43;;;29.07;;
10588;SDS011;5342;55.676;13.346;2022-08-19T00:38:34;31.40;;;28.33;;
10588;SDS011;5342;55.676;13.346;2022-08-19T00:41:01;34.47;;;30.90;;
10588;SDS011;5342;55.676;13.346;2022-08-19T00:43:27;33.93;;;30.70;;
10588;SDS011;5342;55.676;13.346;2022-08-19T00:45:54;34.17;;;30.77;;
10588;SDS011;5342;55.676;13.346;2022-08-19T00:48:21;33.80;;;30.23;;
10588;SDS011;5342;55.676;13.346;2022-08-19T00:50:49;34.57;;;31.27;;
10588;SDS011;5342;55.676;13.346;2022-08-19T00:53:18;33.77;;;30.47;;
10588;SDS011;5342;55.676;13.346;2022-08-19T00:55:46;33.47;;;30.17;;
10588;SDS011;5342;55.676;13.346;2022-08-19T00:58:14;33.43;;;30.13;;
10588;SDS011;5342;55.676;13.346;2022-08-19T01:00:41;34.73;;;31.13;;
10588;SDS011;5342;55.676;13.346;2022-08-19T01:03:09;35.37;;;31.83;;
10588;SDS011;5342;55.676;13.346;2022-08-19T01:05:36;37.00;;;33.47;;
10588;SDS011;5342;55.676;13.346;2022-08-19T01:08:03;36.23;;;32.63;;
10588;SDS011;5342;55.676;13.346;2022-08-19T01:10:31;37.60;;;33.80;;
10588;SDS011;5342;55.676;13.346;2022-08-19T01:13:00;37.23;;;33.67;;
10588;SDS011;5342;55.676;13.346;2022-08-19T01:15:29;36.60;;;33.13;;
10588;SDS011;5342;55.676;13.346;2022-08-19T01:17:56;36.70;;;33.10;;
10588;SDS011;5342;55.676;13.346;2022-08-19T01:20:24;35.80;;;32.43;;
10588;SDS011;5342;55.676;13.346;2022-08-19T01:22:55;37.70;;;33.90;;
10588;SDS011;5342;55.676;13.346;2022-08-19T01:25:24;37.20;;;33.53;;
10588;SDS011;5342;55.676;13.346;2022-08-19T01:27:51;36.73;;;33.23;;
10588;SDS011;5342;55.676;13.346;2022-08-19T01:30:27;34.50;;;31.10;;
10588;SDS011;5342;55.676;13.346;2022-08-19T01:32:53;32.20;;;29.20;;
10588;SDS011;5342;55.676;13.346;2022-08-19T01:35:21;31.47;;;28.27;;
10588;SDS011;5342;55.676;13.346;2022-08-19T01:37:51;31.43;;;28.23;;
10588;SDS011;5342;55.676;13.346;2022-08-19T01:40:18;29.20;;;26.33;;
10588;SDS011;5342;55.676;13.346;2022-08-19T01:42:46;29.30;;;26.40;;
10588;SDS011;5342;55.676;13.346;2022-08-19T01:45:13;27.53;;;25.13;;
10588;SDS011;5342;55.676;13.346;2022-08-19T01:47:40;27.97;;;25.27;;
10588;SDS011;5342;55.676;13.346;2022-08-19T01:50:07;28.70;;;26.10;;
10588;SDS011;5342;55.676;13.346;2022-08-19T01:52:35;27.03;;;24.43;;
10588;SDS011;5342;55.676;13.346;2022-08-19T01:55:02;26.27;;;23.90;;
10588;SDS011;5342;55.676;13.346;2022-08-19T01:57:28;25.77;;;23.37;;
10588;SDS011;5342;55.676;13.346;2022-08-19T01:59:55;26.43;;;24.00;;
10588;SDS011;5342;55.676;13.346;2022-08-19T02:02:22;26.43;;;23.93;;
10588;SDS011;5342;55.676;13.346;2022-08-19T02:04:49;27.20;;;24.50;;
10588;SDS011;5342;55.676;13.346;2022-08-19T02:07:18;27.57;;;25.07;;
10588;SDS011;5342;55.676;13.346;2022-08-19T02:09:45;24.90;;;22.67;;
10588;SDS011;5342;55.676;13.346;2022-08-19T02:12:14;25.60;;;23.30;;
10588;SDS011;5342;55.676;13.346;2022-08-19T02:14:41;25.50;;;23.13;;
10588;SDS011;5342;55.676;13.346;2022-08-19T02:17:08;24.87;;;22.30;;
10588;SDS011;5342;55.676;13.346;2022-08-19T02:19:34;25.27;;;22.80;;
10588;SDS011;5342;55.676;13.346;2022-08-19T02:22:01;25.20;;;22.90;;
10588;SDS011;5342;55.676;13.346;2022-08-19T02:24:27;24.90;;;22.40;;
10588;SDS011;5342;55.676;13.346;2022-08-19T02:26:54;25.37;;;23.07;;
10588;SDS011;5342;55.676;13.346;2022-08-19T02:29:21;24.07;;;21.97;;
10588;SDS011;5342;55.676;13.346;2022-08-19T02:31:47;24.80;;;22.30;;
10588;SDS011;5342;55.676;13.346;2022-08-19T02:34:14;25.17;;;22.87;;
10588;SDS011;5342;55.676;13.346;2022-08-19T02:36:41;24.03;;;21.97;;
10588;SDS011;5342;55.676;13.346;2022-08-19T02:39:07;24.50;;;22.03;;
10588;SDS011;5342;55.676;13.346;2022-08-19T02:41:34;24.93;;;22.63;;
10588;SDS011;5342;55.676;13.346;2022-08-19T02:44:02;24.00;;;21.90;;
10588;SDS011;5342;55.676;13.346;2022-08-19T02:46:30;23.03;;;20.93;;
10588;SDS011;5342;55.676;13.346;2022-08-19T02:49:02;23.93;;;21.80;;
10588;SDS011;5342;55.676;13.346;2022-08-19T02:51:35;22.63;;;20.63;;
10588;SDS011;5342;55.676;13.346;2022-08-19T02:54:02;26.53;;;23.80;;
10588;SDS011;5342;55.676;13.346;2022-08-19T02:56:29;29.00;;;26.23;;
10588;SDS011;5342;55.676;13.346;2022-08-19T02:58:57;28.90;;;26.13;;
10588;SDS011;5342;55.676;13.346;2022-08-19T03:01:29;32.80;;;29.60;;
10588;SDS011;5342;55.676;13.346;2022-08-19T03:03:57;33.90;;;30.40;;
10588;SDS011;5342;55.676;13.346;2022-08-19T03:06:24;34.33;;;31.03;;
10588;SDS011;5342;55.676;13.346;2022-08-19T03:08:51;38.67;;;34.03;;
10588;SDS011;5342;55.676;13.346;2022-08-19T03:11:22;38.90;;;34.90;;
10588;SDS011;5342;55.676;13.346;2022-08-19T03:13:49;39.80;;;35.80;;
10588;SDS011;5342;55.676;13.346;2022-08-19T03:16:19;38.33;;;34.47;;
10588;SDS011;5342;55.676;13.346;2022-08-19T03:18:46;41.33;;;37.13;;
10588;SDS011;5342;55.676;13.346;2022-08-19T03:21:20;41.87;;;37.50;;
10588;SDS011;5342;55.676;13.346;2022-08-19T03:23:47;40.27;;;36.03;;
10588;SDS011;5342;55.676;13.346;2022-08-19T03:26:13;38.23;;;34.20;;
10588;SDS011;5342;55.676;13.346;2022-08-19T03:28:43;40.37;;;36.13;;
10588;SDS011;5342;55.676;13.346;2022-08-19T03:31:13;40.40;;;36.13;;
10588;SDS011;5342;55.676;13.346;2022-08-19T03:33:40;38.60;;;34.87;;
10588;SDS011;5342;55.676;13.346;2022-08-19T03:36:13;38.07;;;33.17;;
10588;SDS011;5342;55.676;13.346;2022-08-19T03:38:41;34.20;;;30.67;;
10588;SDS011;5342;55.676;13.346;2022-08-19T03:41:12;33.10;;;30.03;;
10588;SDS011;5342;55.676;13.346;2022-08-19T03:43:39;37.10;;;33.43;;
10588;SDS011;5342;55.676;13.346;2022-08-19T03:46:08;34.63;;;31.23;;
10588;SDS011;5342;55.676;13.346;2022-08-19T03:48:35;32.73;;;29.63;;
10588;SDS011;5342;55.676;13.346;2022-08-19T03:51:02;31.50;;;28.50;;
10588;SDS011;5342;55.676;13.346;2022-08-19T03:53:29;32.73;;;29.43;;
10588;SDS011;5342;55.676;13.346;2022-08-19T03:55:56;34.50;;;31.13;;
10588;SDS011;5342;55.676;13.346;2022-08-19T03:58:26;35.00;;;31.67;;
10588;SDS011;5342;55.676;13.346;2022-08-19T04:00:57;34.30;;;31.00;;
10588;SDS011;5342;55.676;13.346;2022-08-19T04:03:24;32.87;;;29.70;;
10588;SDS011;5342;55.676;13.346;2022-08-19T04:05:52;33.30;;;29.90;;
10588;SDS011;5342;55.676;13.346;2022-08-19T04:08:19;34.07;;;30.70;;
10588;SDS011;5342;55.676;13.346;2022-08-19T04:10:48;32.63;;;29.37;;
10588;SDS011;5342;55.676;13.346;2022-08-19T04:13:15;33.67;;;30.37;;
10588;SDS011;5342;55.676;13.346;2022-08-19T04:15:42;33.03;;;29.93;;
10588;SDS011;5342;55.676;13.346;2022-08-19T04:18:09;35.33;;;31.73;;
10588;SDS011;5342;55.676;13.346;2022-08-19T04:20:44;37.37;;;32.60;;
10588;SDS011;5342;55.676;13.346;2022-08-19T04:23:11;36.80;;;33.03;;
10588;SDS011;5342;55.676;13.346;2022-08-19T04:25:42;37.63;;;33.97;;
10588;SDS011;5342;55.676;13.346;2022-08-19T04:28:10;37.60;;;33.43;;
10588;SDS011;5342;55.676;13.346;2022-08-19T04:30:44;37.87;;;34.07;;
10588;SDS011;5342;55.676;13.346;2022-08-19T04:33:11;38.00;;;34.00;;
10588;SDS011;5342;55.676;13.346;2022-08-19T04:35:39;38.20;;;34.40;;
10588;SDS011;5342;55.676;13.346;2022-08-19T04:38:07;37.50;;;33.77;;
10588;SDS011;5342;55.676;13.346;2022-08-19T04:40:34;36.23;;;32.87;;
10588;SDS011;5342;55.676;13.346;2022-08-19T04:43:19;36.77;;;33.17;;
10588;SDS011;5342;55.676;13.346;2022-08-19T04:45:46;36.20;;;32.70;;
10588;SDS011;5342;55.676;13.346;2022-08-19T04:48:12;37.30;;;33.53;;
10588;SDS011;5342;55.676;13.346;2022-08-19T04:50:40;37.73;;;33.80;;
10588;SDS011;5342;55.676;13.346;2022-08-19T04:53:07;36.53;;;32.97;;
10588;SDS011;5342;55.676;13.346;2022-08-19T04:55:33;37.53;;;33.70;;
10588;SDS011;5342;55.676;13.346;2022-08-19T04:58:01;35.87;;;32.47;;
10588;SDS011;5342;55.676;13.346;2022-08-19T05:00:28;34.70;;;31.20;;
10588;SDS011;5342;55.676;13.346;2022-08-19T05:02:54;35.60;;;32.23;;
10588;SDS011;5342;55.676;13.346;2022-08-19T05:05:21;35.80;;;32.40;;
10588;SDS011;5342;55.676;13.346;2022-08-19T05:07:47;33.90;;;30.73;;
10588;SDS011;5342;55.676;13.346;2022-08-19T05:10:14;33.63;;;30.33;;
10588;SDS011;5342;55.676;13.346;2022-08-19T05:12:40;34.67;;;31.27;;
10588;SDS011;5342;55.676;13.346;2022-08-19T05:15:07;33.73;;;30.33;;
10588;SDS011;5342;55.676;13.346;2022-08-19T05:17:34;34.60;;;31.20;;
10588;SDS011;5342;55.676;13.346;2022-08-19T05:20:01;35.73;;;32.53;;
10588;SDS011;5342;55.676;13.346;2022-08-19T05:22:47;34.83;;;31.40;;
10588;SDS011;5342;55.676;13.346;2022-08-19T05:25:19;33.17;;;30.07;;
10588;SDS011;5342;55.676;13.346;2022-08-19T05:27:46;32.00;;;28.63;;
10588;SDS011;5342;55.676;13.346;2022-08-19T05:30:13;31.37;;;28.47;;
10588;SDS011;5342;55.676;13.346;2022-08-19T05:32:40;30.37;;;27.67;;
10588;SDS011;5342;55.676;13.346;2022-08-19T05:35:07;32.53;;;29.33;;
10588;SDS011;5342;55.676;13.346;2022-08-19T05:37:33;29.37;;;26.57;;
10588;SDS011;5342;55.676;13.346;2022-08-19T05:40:00;28.70;;;26.00;;
10588;SDS011;5342;55.676;13.346;2022-08-19T05:42:26;29.97;;;26.97;;
10588;SDS011;5342;55.676;13.346;2022-08-19T05:44:53;31.57;;;28.57;;
10588;SDS011;5342;55.676;13.346;2022-08-19T05:47:21;30.40;;;27.60;;
10588;SDS011;5342;55.676;13.346;2022-08-19T05:49:48;29.87;;;26.30;;
10588;SDS011;5342;55.676;13.346;2022-08-19T05:52:17;29.27;;;26.63;;
10588;SDS011;5342;55.676;13.346;2022-08-19T05:54:45;32.97;;;29.97;;
10588;SDS011;5342;55.676;13.346;2022-08-19T05:57:14;31.93;;;28.93;;
10588;SDS011;5342;55.676;13.346;2022-08-19T05:59:41;31.07;;;28.30;;
10588;SDS011;5342;55.676;13.346;2022-08-19T06:02:07;31.00;;;28.27;;
10588;SDS011;5342;55.676;13.346;2022-08-19T06:04:34;31.63;;;28.30;;
10588;SDS011;5342;55.676;13.346;2022-08-19T06:07:00;30.47;;;27.50;;
10588;SDS011;5342;55.676;13.346;2022-08-19T06:09:27;31.10;;;28.30;;
10588;SDS011;5342;55.676;13.346;2022-08-19T06:11:55;32.37;;;29.13;;
10588;SDS011;5342;55.676;13.346;2022-08-19T06:14:29;30.17;;;27.47;;
10588;SDS011;5342;55.676;13.346;2022-08-19T06:16:56;31.10;;;28.30;;
10588;SDS011;5342;55.676;13.346;2022-08-19T06:19:25;28.73;;;26.07;;
10588;SDS011;5342;55.676;13.346;2022-08-19T06:21:54;26.63;;;24.23;;
10588;SDS011;5342;55.676;13.346;2022-08-19T06:24:22;24.87;;;22.77;;
10588;SDS011;5342;55.676;13.346;2022-08-19T06:26:50;27.27;;;24.57;;
10588;SDS011;5342;55.676;13.346;2022-08-19T06:29:17;28.00;;;25.20;;
10588;SDS011;5342;55.676;13.346;2022-08-19T06:31:46;26.13;;;23.80;;
10588;SDS011;5342;55.676;13.346;2022-08-19T06:34:15;25.83;;;23.43;;
10588;SDS011;5342;55.676;13.346;2022-08-19T06:36:43;24.47;;;22.37;;
10588;SDS011;5342;55.676;13.346;2022-08-19T06:39:12;26.13;;;23.73;;
10588;SDS011;5342;55.676;13.346;2022-08-19T06:41:41;27.43;;;24.83;;
10588;SDS011;5342;55.676;13.346;2022-08-19T06:44:07;25.27;;;23.07;;
10588;SDS011;5342;55.676;13.346;2022-08-19T06:46:34;20.90;;;19.03;;
10588;SDS011;5342;55.676;13.346;2022-08-19T06:49:01;20.83;;;18.93;;
10588;SDS011;5342;55.676;13.346;2022-08-19T06:51:28;18.00;;;16.33;;
10588;SDS011;5342;55.676;13.346;2022-08-19T06:53:57;19.53;;;17.53;;
10588;SDS011;5342;55.676;13.346;2022-08-19T06:56:25;18.10;;;16.40;;
10588;SDS011;5342;55.676;13.346;2022-08-19T06:58:56;19.03;;;17.10;;
10588;SDS011;5342;55.676;13.346;2022-08-19T07:01:23;21.47;;;19.47;;
10588;SDS011;5342;55.676;13.346;2022-08-19T07:03:50;21.13;;;19.33;;
10588;SDS011;5342;55.676;13.346;2022-08-19T07:06:17;20.70;;;18.60;;
10588;SDS011;5342;55.676;13.346;2022-08-19T07:08:45;19.70;;;18.10;;
10588;SDS011;5342;55.676;13.346;2022-08-19T07:11:14;19.93;;;17.97;;
10588;SDS011;5342;55.676;13.346;2022-08-19T07:13:41;18.23;;;16.63;;
10588;SDS011;5342;55.676;13.346;2022-08-19T07:16:10;17.77;;;16.30;;
10588;SDS011;5342;55.676;13.346;2022-08-19T07:18:37;17.13;;;15.73;;
10588;SDS011;5342;55.676;13.346;2022-08-19T07:21:04;17.07;;;15.57;;
10588;SDS011;5342;55.676;13.346;2022-08-19T07:23:31;16.77;;;15.37;;
10588;SDS011;5342;55.676;13.346;2022-08-19T07:25:58;15.87;;;14.67;;
10588;SDS011;5342;55.676;13.346;2022-08-19T07:28:30;15.73;;;14.43;;
10588;SDS011;5342;55.676;13.346;2022-08-19T07:30:56;15.50;;;14.20;;
10588;SDS011;5342;55.676;13.346;2022-08-19T07:33:23;14.30;;;13.13;;
10588;SDS011;5342;55.676;13.346;2022-08-19T07:35:49;14.10;;;12.90;;
10588;SDS011;5342;55.676;13.346;2022-08-19T07:38:16;14.20;;;13.10;;
10588;SDS011;5342;55.676;13.346;2022-08-19T07:40:43;14.13;;;12.80;;
10588;SDS011;5342;55.676;13.346;2022-08-19T07:43:11;14.13;;;13.00;;
10588;SDS011;5342;55.676;13.346;2022-08-19T07:45:38;15.50;;;14.20;;
10588;SDS011;5342;55.676;13.346;2022-08-19T07:48:04;15.70;;;14.40;;
10588;SDS011;5342;55.676;13.346;2022-08-19T07:50:31;16.43;;;15.03;;
10588;SDS011;5342;55.676;13.346;2022-08-19T07:52:57;15.97;;;14.47;;
10588;SDS011;5342;55.676;13.346;2022-08-19T07:55:24;16.40;;;14.70;;
10588;SDS011;5342;55.676;13.346;2022-08-19T07:57:51;15.30;;;14.10;;
10588;SDS011;5342;55.676;13.346;2022-08-19T08:00:18;15.07;;;13.77;;
10588;SDS011;5342;55.676;13.346;2022-08-19T08:02:45;13.40;;;12.40;;
10588;SDS011;5342;55.676;13.346;2022-08-19T08:05:12;13.77;;;12.47;;
10588;SDS011;5342;55.676;13.346;2022-08-19T08:07:57;12.80;;;11.73;;
10588;SDS011;5342;55.676;13.346;2022-08-19T08:10:42;12.10;;;11.20;;
10588;SDS011;5342;55.676;13.346;2022-08-19T08:13:09;12.97;;;11.77;;
10588;SDS011;5342;55.676;13.346;2022-08-19T08:15:36;13.10;;;12.03;;
10588;SDS011;5342;55.676;13.346;2022-08-19T08:18:04;12.93;;;11.80;;
10588;SDS011;5342;55.676;13.346;2022-08-19T08:20:31;12.47;;;11.37;;
10588;SDS011;5342;55.676;13.346;2022-08-19T08:22:58;12.63;;;11.63;;
10588;SDS011;5342;55.676;13.346;2022-08-19T08:25:43;11.93;;;10.73;;
10588;SDS011;5342;55.676;13.346;2022-08-19T08:28:09;10.67;;;9.77;;
10588;SDS011;5342;55.676;13.346;2022-08-19T08:30:36;12.07;;;11.00;;
10588;SDS011;5342;55.676;13.346;2022-08-19T08:33:05;11.03;;;10.10;;
10588;SDS011;5342;55.676;13.346;2022-08-19T08:35:31;11.40;;;10.40;;
10588;SDS011;5342;55.676;13.346;2022-08-19T08:37:59;10.73;;;9.83;;
10588;SDS011;5342;55.676;13.346;2022-08-19T08:43:11;9.87;;;9.07;;
10588;SDS011;5342;55.676;13.346;2022-08-19T08:45:50;10.17;;;9.27;;
10588;SDS011;5342;55.676;13.346;2022-08-19T08:49:02;10.37;;;9.57;;
10588;SDS011;5342;55.676;13.346;2022-08-19T08:51:18;10.07;;;9.27;;
10588;SDS011;5342;55.676;13.346;2022-08-19T08:53:47;9.53;;;8.73;;
10588;SDS011;5342;55.676;13.346;2022-08-19T08:56:14;10.03;;;8.20;;
10588;SDS011;5342;55.676;13.346;2022-08-19T08:58:58;8.27;;;7.67;;
10588;SDS011;5342;55.676;13.346;2022-08-19T09:01:25;9.00;;;8.17;;
10588;SDS011;5342;55.676;13.346;2022-08-19T09:03:53;9.57;;;8.03;;
10588;SDS011;5342;55.676;13.346;2022-08-19T09:06:29;8.80;;;7.90;;
10588;SDS011;5342;55.676;13.346;2022-08-19T09:09:20;9.70;;;8.80;;
10588;SDS011;5342;55.676;13.346;2022-08-19T09:14:29;10.17;;;8.23;;
10588;SDS011;5342;55.676;13.346;2022-08-19T09:16:58;12.53;;;8.07;;
10588;SDS011;5342;55.676;13.346;2022-08-19T09:19:26;8.80;;;8.07;;
10588;SDS011;5342;55.676;13.346;2022-08-19T09:21:52;11.37;;;9.33;;
10588;SDS011;5342;55.676;13.346;2022-08-19T09:24:19;8.83;;;8.13;;
10588;SDS011;5342;55.676;13.346;2022-08-19T09:26:46;9.03;;;8.23;;
10588;SDS011;5342;55.676;13.346;2022-08-19T09:29:13;9.40;;;8.60;;
10588;SDS011;5342;55.676;13.346;2022-08-19T09:31:40;8.77;;;7.83;;
10588;SDS011;5342;55.676;13.346;2022-08-19T09:34:06;9.37;;;8.53;;
10588;SDS011;5342;55.676;13.346;2022-08-19T09:36:33;9.40;;;8.60;;
10588;SDS011;5342;55.676;13.346;2022-08-19T09:39:04;8.10;;;7.50;;
10588;SDS011;5342;55.676;13.346;2022-08-19T09:41:31;10.23;;;8.97;;
10588;SDS011;5342;55.676;13.346;2022-08-19T09:43:58;11.60;;;8.73;;
10588;SDS011;5342;55.676;13.346;2022-08-19T09:46:26;9.77;;;8.97;;
10588;SDS011;5342;55.676;13.346;2022-08-19T09:48:53;9.60;;;8.80;;
10588;SDS011;5342;55.676;13.346;2022-08-19T09:51:23;9.50;;;8.70;;
10588;SDS011;5342;55.676;13.346;2022-08-19T09:53:51;10.40;;;8.47;;
10588;SDS011;5342;55.676;13.346;2022-08-19T09:56:20;9.77;;;8.90;;
10588;SDS011;5342;55.676;13.346;2022-08-19T09:58:46;9.57;;;8.80;;
10588;SDS011;5342;55.676;13.346;2022-08-19T10:01:17;8.07;;;7.47;;
10588;SDS011;5342;55.676;13.346;2022-08-19T10:03:46;8.90;;;8.07;;
10588;SDS011;5342;55.676;13.346;2022-08-19T10:06:13;8.97;;;8.07;;
10588;SDS011;5342;55.676;13.346;2022-08-19T10:08:40;8.23;;;7.03;;
10588;SDS011;5342;55.676;13.346;2022-08-19T10:11:06;12.00;;;7.97;;
10588;SDS011;5342;55.676;13.346;2022-08-19T10:13:35;12.47;;;8.27;;
10588;SDS011;5342;55.676;13.346;2022-08-19T10:16:04;11.57;;;8.97;;
10588;SDS011;5342;55.676;13.346;2022-08-19T10:18:31;11.87;;;8.70;;
10588;SDS011;5342;55.676;13.346;2022-08-19T10:21:33;9.10;;;8.27;;
10588;SDS011;5342;55.676;13.346;2022-08-19T10:23:53;10.90;;;9.23;;
10588;SDS011;5342;55.676;13.346;2022-08-19T10:26:23;12.07;;;9.33;;
10588;SDS011;5342;55.676;13.346;2022-08-19T10:28:50;13.23;;;10.00;;
10588;SDS011;5342;55.676;13.346;2022-08-19T10:31:18;11.27;;;8.77;;
10588;SDS011;5342;55.676;13.346;2022-08-19T10:33:46;12.70;;;9.33;;
10588;SDS011;5342;55.676;13.346;2022-08-19T10:36:14;10.70;;;9.60;;
10588;SDS011;5342;55.676;13.346;2022-08-19T10:38:43;10.90;;;9.70;;
10588;SDS011;5342;55.676;13.346;2022-08-19T10:41:12;11.43;;;10.27;;
10588;SDS011;5342;55.676;13.346;2022-08-19T10:43:39;10.20;;;9.47;;
10588;SDS011;5342;55.676;13.346;2022-08-19T10:46:08;10.37;;;9.33;;
10588;SDS011;5342;55.676;13.346;2022-08-19T10:48:34;10.90;;;9.77;;
10588;SDS011;5342;55.676;13.346;2022-08-19T10:51:01;11.23;;;10.13;;
10588;SDS011;5342;55.676;13.346;2022-08-19T10:53:47;9.73;;;8.77;;
10588;SDS011;5342;55.676;13.346;2022-08-19T10:56:13;10.80;;;9.80;;
10588;SDS011;5342;55.676;13.346;2022-08-19T10:58:59;12.37;;;10.13;;
10588;SDS011;5342;55.676;13.346;2022-08-19T11:01:26;9.97;;;9.03;;
10588;SDS011;5342;55.676;13.346;2022-08-19T11:03:55;10.40;;;9.40;;
10588;SDS011;5342;55.676;13.346;2022-08-19T11:06:22;11.13;;;10.00;;
10588;SDS011;5342;55.676;13.346;2022-08-19T11:08:53;10.70;;;9.60;;
10588;SDS011;5342;55.676;13.346;2022-08-19T11:11:20;10.70;;;9.73;;
10588;SDS011;5342;55.676;13.346;2022-08-19T11:13:46;12.13;;;11.03;;
10588;SDS011;5342;55.676;13.346;2022-08-19T11:16:24;9.37;;;8.47;;
10588;SDS011;5342;55.676;13.346;2022-08-19T11:18:53;10.17;;;7.90;;
10588;SDS011;5342;55.676;13.346;2022-08-19T11:23:48;10.00;;;9.03;;
10588;SDS011;5342;55.676;13.346;2022-08-19T11:26:15;9.60;;;8.70;;
10588;SDS011;5342;55.676;13.346;2022-08-19T11:28:42;8.97;;;8.17;;
10588;SDS011;5342;55.676;13.346;2022-08-19T11:31:09;9.90;;;8.90;;
10588;SDS011;5342;55.676;13.346;2022-08-19T11:33:37;10.33;;;9.23;;
10588;SDS011;5342;55.676;13.346;2022-08-19T11:36:03;9.73;;;8.83;;
10588;SDS011;5342;55.676;13.346;2022-08-19T11:38:30;10.23;;;8.97;;
10588;SDS011;5342;55.676;13.346;2022-08-19T11:41:00;11.20;;;10.20;;
10588;SDS011;5342;55.676;13.346;2022-08-19T11:43:28;10.73;;;9.73;;
10588;SDS011;5342;55.676;13.346;2022-08-19T11:45:54;12.83;;;10.13;;
10588;SDS011;5342;55.676;13.346;2022-08-19T11:48:21;14.83;;;11.10;;
10588;SDS011;5342;55.676;13.346;2022-08-19T11:50:52;10.67;;;9.57;;
10588;SDS011;5342;55.676;13.346;2022-08-19T11:53:22;11.43;;;10.33;;
10588;SDS011;5342;55.676;13.346;2022-08-19T11:55:49;11.53;;;10.43;;
10588;SDS011;5342;55.676;13.346;2022-08-19T11:58:16;10.13;;;9.33;;
10588;SDS011;5342;55.676;13.346;2022-08-19T12:00:43;11.07;;;9.67;;
10588;SDS011;5342;55.676;13.346;2022-08-19T12:03:11;11.20;;;10.17;;
10588;SDS011;5342;55.676;13.346;2022-08-19T12:05:38;10.60;;;9.80;;
10588;SDS011;5342;55.676;13.346;2022-08-19T12:08:05;10.50;;;9.50;;
10588;SDS011;5342;55.676;13.346;2022-08-19T12:10:32;10.73;;;9.87;;
10588;SDS011;5342;55.676;13.346;2022-08-19T12:12:59;12.67;;;11.03;;
10588;SDS011;5342;55.676;13.346;2022-08-19T12:15:26;15.13;;;12.03;;
10588;SDS011;5342;55.676;13.346;2022-08-19T12:17:54;13.70;;;11.30;;
10588;SDS011;5342;55.676;13.346;2022-08-19T12:20:22;12.40;;;11.10;;
10588;SDS011;5342;55.676;13.346;2022-08-19T12:22:50;13.60;;;12.20;;
10588;SDS011;5342;55.676;13.346;2022-08-19T12:25:16;12.43;;;11.23;;
10588;SDS011;5342;55.676;13.346;2022-08-19T12:27:43;12.97;;;11.97;;
10588;SDS011;5342;55.676;13.346;2022-08-19T12:30:11;13.17;;;11.97;;
10588;SDS011;5342;55.676;13.346;2022-08-19T12:32:38;13.27;;;11.97;;
10588;SDS011;5342;55.676;13.346;2022-08-19T12:35:06;13.33;;;12.07;;
10588;SDS011;5342;55.676;13.346;2022-08-19T12:37:33;13.30;;;12.20;;
10588;SDS011;5342;55.676;13.346;2022-08-19T12:40:00;14.17;;;12.87;;
10588;SDS011;5342;55.676;13.346;2022-08-19T12:42:27;15.50;;;14.10;;
10588;SDS011;5342;55.676;13.346;2022-08-19T12:44:55;14.80;;;13.37;;
10588;SDS011;5342;55.676;13.346;2022-08-19T12:47:21;15.20;;;13.90;;
10588;SDS011;5342;55.676;13.346;2022-08-19T12:49:48;15.27;;;13.90;;
10588;SDS011;5342;55.676;13.346;2022-08-19T12:52:15;15.70;;;14.37;;
10588;SDS011;5342;55.676;13.346;2022-08-19T12:54:42;14.67;;;13.23;;
10588;SDS011;5342;55.676;13.346;2022-08-19T12:57:09;16.13;;;14.73;;
10588;SDS011;5342;55.676;13.346;2022-08-19T12:59:36;15.37;;;13.80;;
10588;SDS011;5342;55.676;13.346;2022-08-19T13:02:04;14.50;;;13.20;;
10588;SDS011;5342;55.676;13.346;2022-08-19T13:04:32;15.37;;;13.87;;
10588;SDS011;5342;55.676;13.346;2022-08-19T13:07:01;15.57;;;14.27;;
10588;SDS011;5342;55.676;13.346;2022-08-19T13:09:28;17.00;;;15.40;;
10588;SDS011;5342;55.676;13.346;2022-08-19T13:11:54;16.57;;;14.90;;
10588;SDS011;5342;55.676;13.346;2022-08-19T13:14:22;15.90;;;14.40;;
10588;SDS011;5342;55.676;13.346;2022-08-19T13:16:48;18.90;;;16.17;;
10588;SDS011;5342;55.676;13.346;2022-08-19T13:19:15;17.17;;;15.63;;
10588;SDS011;5342;55.676;13.346;2022-08-19T13:21:42;17.47;;;15.80;;
10588;SDS011;5342;55.676;13.346;2022-08-19T13:24:08;16.20;;;14.57;;
10588;SDS011;5342;55.676;13.346;2022-08-19T13:26:35;15.13;;;13.80;;
10588;SDS011;5342;55.676;13.346;2022-08-19T13:29:01;16.43;;;14.80;;
10588;SDS011;5342;55.676;13.346;2022-08-19T13:31:46;15.57;;;14.27;;
10588;SDS011;5342;55.676;13.346;2022-08-19T13:34:33;15.07;;;13.53;;
10588;SDS011;5342;55.676;13.346;2022-08-19T13:37:01;15.67;;;14.00;;
10588;SDS011;5342;55.676;13.346;2022-08-19T13:39:31;15.53;;;14.03;;
10588;SDS011;5342;55.676;13.346;2022-08-19T13:41:59;15.10;;;13.77;;
10588;SDS011;5342;55.676;13.346;2022-08-19T13:44:26;15.20;;;13.73;;
10588;SDS011;5342;55.676;13.346;2022-08-19T13:46:55;15.63;;;13.07;;
10588;SDS011;5342;55.676;13.346;2022-08-19T13:49:27;16.03;;;14.63;;
10588;SDS011;5342;55.676;13.346;2022-08-19T13:51:56;14.80;;;13.57;;
10588;SDS011;5342;55.676;13.346;2022-08-19T13:54:23;15.00;;;13.60;;
10588;SDS011;5342;55.676;13.346;2022-08-19T13:56:50;15.43;;;14.03;;
10588;SDS011;5342;55.676;13.346;2022-08-19T13:59:16;16.13;;;14.73;;
10588;SDS011;5342;55.676;13.346;2022-08-19T14:01:43;15.03;;;13.77;;
10588;SDS011;5342;55.676;13.346;2022-08-19T14:04:09;16.20;;;14.87;;
10588;SDS011;5342;55.676;13.346;2022-08-19T14:06:36;15.53;;;14.13;;
10588;SDS011;5342;55.676;13.346;2022-08-19T14:09:03;16.83;;;15.30;;
10588;SDS011;5342;55.676;13.346;2022-08-19T14:11:30;18.03;;;16.33;;
10588;SDS011;5342;55.676;13.346;2022-08-19T14:13:56;17.07;;;15.43;;
10588;SDS011;5342;55.676;13.346;2022-08-19T14:16:23;16.37;;;15.03;;
10588;SDS011;5342;55.676;13.346;2022-08-19T14:18:50;16.13;;;14.73;;
10588;SDS011;5342;55.676;13.346;2022-08-19T14:21:19;18.10;;;16.43;;
10588;SDS011;5342;55.676;13.346;2022-08-19T14:23:46;18.97;;;17.07;;
10588;SDS011;5342;55.676;13.346;2022-08-19T14:26:14;19.47;;;17.67;;
10588;SDS011;5342;55.676;13.346;2022-08-19T14:28:41;20.03;;;18.40;;
10588;SDS011;5342;55.676;13.346;2022-08-19T14:31:12;19.27;;;17.57;;
10588;SDS011;5342;55.676;13.346;2022-08-19T14:33:39;20.33;;;18.47;;
10588;SDS011;5342;55.676;13.346;2022-08-19T14:36:06;20.87;;;18.97;;
10588;SDS011;5342;55.676;13.346;2022-08-19T14:38:32;21.47;;;19.53;;
10588;SDS011;5342;55.676;13.346;2022-08-19T14:41:13;20.33;;;18.30;;